This is the latest recevied weather packets stored in our database for station/object SV2ASS-2. If no packets are shown the sender has not sent any weather packets the latest 10 day(s).
| Time | Temp. | Humidity | Pressure | Rain* | Wind** | Luminosity | Snow |
|---|---|---|---|---|---|---|---|
| 1777706866 | 10° C | 49% | 1024.7 hPa | - | - | - | - |
| 1777705966 | 10° C | 52% | 1024.9 hPa | - | - | - | - |
| 1777705066 | 10° C | 51% | 1024.9 hPa | - | - | - | - |
| 1777704166 | 9.44° C | 54% | 1025 hPa | - | - | - | - |
| 1777703265 | 9.44° C | 53% | 1025 hPa | - | - | - | - |
| 1777702365 | 8.89° C | 55% | 1025 hPa | - | - | - | - |
| 1777701465 | 8.33° C | 55% | 1024.8 hPa | - | - | - | - |
| 1777700565 | 8.33° C | 65% | 1024.7 hPa | - | - | - | - |
| 1777699665 | 7.78° C | 61% | 1024.6 hPa | - | - | - | - |
| 1777698765 | 6.67° C | 59% | 1024.6 hPa | - | - | - | - |
| 1777697865 | 6.11° C | 60% | 1024.8 hPa | - | - | - | - |
| 1777696965 | 6.11° C | 58% | 1024.9 hPa | - | - | - | - |
| 1777696064 | 5.56° C | 59% | 1024.7 hPa | - | - | - | - |
| 1777695164 | 5° C | 59% | 1024.8 hPa | - | - | - | - |
| 1777694264 | 5° C | 60% | 1024.8 hPa | - | - | - | - |
| 1777693364 | 5° C | 62% | 1024.8 hPa | - | - | - | - |
| 1777692463 | 5° C | 64% | 1024.9 hPa | - | - | - | - |
| 1777691563 | 5.56° C | 63% | 1024.8 hPa | - | - | - | - |
| 1777690665 | 6.11° C | 61% | 1024.9 hPa | - | - | - | - |
| 1777689765 | 6.11° C | 61% | 1025 hPa | - | - | - | - |
| 1777688865 | 6.67° C | 60% | 1025 hPa | - | - | - | - |
| 1777670863 | 8.89° C | 64% | 1026.3 hPa | - | - | - | - |
| 1777669963 | 8.89° C | 67% | 1026.3 hPa | - | - | - | - |
| 1777668167 | 8.89° C | 65% | 1026.3 hPa | - | - | - | - |
| 1777667267 | 9.44° C | 66% | 1026.2 hPa | - | - | - | - |
* Rain since midnight (hover to see other rain measurements)
** Current wind speed in m/s (hover to see current wind gust speed)